sensor_id;sensor_type;location;lat;lon;timestamp;P1;durP1;ratioP1;P2;durP2;ratioP2
55090;SDS011;40985;53.180;5.800;2023-02-19T00:01:06;35.67;;;12.27;;
55090;SDS011;40985;53.180;5.800;2023-02-19T00:03:32;40.72;;;13.70;;
55090;SDS011;40985;53.180;5.800;2023-02-19T00:06:02;36.58;;;13.48;;
55090;SDS011;40985;53.180;5.800;2023-02-19T00:08:31;31.83;;;12.65;;
55090;SDS011;40985;53.180;5.800;2023-02-19T00:11:09;34.35;;;12.55;;
55090;SDS011;40985;53.180;5.800;2023-02-19T00:13:37;33.45;;;11.43;;
55090;SDS011;40985;53.180;5.800;2023-02-19T00:16:06;30.70;;;11.43;;
55090;SDS011;40985;53.180;5.800;2023-02-19T00:18:32;35.95;;;11.40;;
55090;SDS011;40985;53.180;5.800;2023-02-19T00:20:57;32.00;;;12.00;;
55090;SDS011;40985;53.180;5.800;2023-02-19T00:23:23;30.55;;;10.63;;
55090;SDS011;40985;53.180;5.800;2023-02-19T00:25:49;25.80;;;10.50;;
55090;SDS011;40985;53.180;5.800;2023-02-19T00:28:14;32.97;;;10.93;;
55090;SDS011;40985;53.180;5.800;2023-02-19T00:30:40;29.02;;;10.40;;
55090;SDS011;40985;53.180;5.800;2023-02-19T00:33:06;25.50;;;9.90;;
55090;SDS011;40985;53.180;5.800;2023-02-19T00:35:35;24.55;;;9.00;;
55090;SDS011;40985;53.180;5.800;2023-02-19T00:38:01;25.70;;;8.48;;
55090;SDS011;40985;53.180;5.800;2023-02-19T00:40:27;21.45;;;7.88;;
55090;SDS011;40985;53.180;5.800;2023-02-19T00:42:53;21.42;;;8.07;;
55090;SDS011;40985;53.180;5.800;2023-02-19T00:45:19;22.08;;;7.65;;
55090;SDS011;40985;53.180;5.800;2023-02-19T00:47:45;20.00;;;6.65;;
55090;SDS011;40985;53.180;5.800;2023-02-19T00:50:10;23.08;;;6.50;;
55090;SDS011;40985;53.180;5.800;2023-02-19T00:52:36;23.25;;;6.25;;
55090;SDS011;40985;53.180;5.800;2023-02-19T00:55:01;19.13;;;5.78;;
55090;SDS011;40985;53.180;5.800;2023-02-19T00:57:27;14.32;;;6.13;;
55090;SDS011;40985;53.180;5.800;2023-02-19T00:59:53;20.58;;;6.60;;
55090;SDS011;40985;53.180;5.800;2023-02-19T01:02:18;19.42;;;6.65;;
55090;SDS011;40985;53.180;5.800;2023-02-19T01:04:44;17.85;;;6.22;;
55090;SDS011;40985;53.180;5.800;2023-02-19T01:07:10;17.02;;;5.97;;
55090;SDS011;40985;53.180;5.800;2023-02-19T01:09:35;15.45;;;5.35;;
55090;SDS011;40985;53.180;5.800;2023-02-19T01:12:02;16.85;;;4.55;;
55090;SDS011;40985;53.180;5.800;2023-02-19T01:14:31;17.42;;;4.90;;
55090;SDS011;40985;53.180;5.800;2023-02-19T01:16:57;22.38;;;4.85;;
55090;SDS011;40985;53.180;5.800;2023-02-19T01:19:23;16.75;;;4.88;;
55090;SDS011;40985;53.180;5.800;2023-02-19T01:21:49;18.20;;;4.78;;
55090;SDS011;40985;53.180;5.800;2023-02-19T01:24:14;16.38;;;4.35;;
55090;SDS011;40985;53.180;5.800;2023-02-19T01:26:40;23.75;;;6.20;;
55090;SDS011;40985;53.180;5.800;2023-02-19T01:29:07;16.65;;;5.30;;
55090;SDS011;40985;53.180;5.800;2023-02-19T01:31:33;19.20;;;5.07;;
55090;SDS011;40985;53.180;5.800;2023-02-19T01:34:00;16.30;;;5.15;;
55090;SDS011;40985;53.180;5.800;2023-02-19T01:36:27;20.00;;;5.63;;
55090;SDS011;40985;53.180;5.800;2023-02-19T01:38:54;20.25;;;5.32;;
55090;SDS011;40985;53.180;5.800;2023-02-19T01:41:22;19.45;;;6.15;;
55090;SDS011;40985;53.180;5.800;2023-02-19T01:46:42;24.13;;;6.00;;
55090;SDS011;40985;53.180;5.800;2023-02-19T01:52:04;28.13;;;7.18;;
55090;SDS011;40985;53.180;5.800;2023-02-19T01:54:43;17.13;;;6.45;;
55090;SDS011;40985;53.180;5.800;2023-02-19T01:57:12;21.85;;;7.57;;
55090;SDS011;40985;53.180;5.800;2023-02-19T01:59:43;17.88;;;7.72;;
55090;SDS011;40985;53.180;5.800;2023-02-19T02:02:10;26.73;;;8.10;;
55090;SDS011;40985;53.180;5.800;2023-02-19T02:04:36;25.15;;;8.02;;
55090;SDS011;40985;53.180;5.800;2023-02-19T02:07:03;30.33;;;10.15;;
55090;SDS011;40985;53.180;5.800;2023-02-19T02:09:50;31.35;;;10.40;;
55090;SDS011;40985;53.180;5.800;2023-02-19T02:12:35;24.60;;;10.20;;
55090;SDS011;40985;53.180;5.800;2023-02-19T02:15:01;27.23;;;9.93;;
55090;SDS011;40985;53.180;5.800;2023-02-19T02:17:29;34.63;;;11.70;;
55090;SDS011;40985;53.180;5.800;2023-02-19T02:33:52;35.08;;;12.40;;
55090;SDS011;40985;53.180;5.800;2023-02-19T02:36:32;36.72;;;13.43;;
55090;SDS011;40985;53.180;5.800;2023-02-19T02:39:01;48.75;;;15.02;;
55090;SDS011;40985;53.180;5.800;2023-02-19T02:41:29;39.35;;;14.43;;
55090;SDS011;40985;53.180;5.800;2023-02-19T02:43:56;44.95;;;15.60;;
55090;SDS011;40985;53.180;5.800;2023-02-19T02:46:23;42.80;;;15.38;;
55090;SDS011;40985;53.180;5.800;2023-02-19T02:48:57;40.53;;;14.55;;
55090;SDS011;40985;53.180;5.800;2023-02-19T02:51:40;24.65;;;13.07;;
55090;SDS011;40985;53.180;5.800;2023-02-19T02:56:58;21.60;;;10.23;;
55090;SDS011;40985;53.180;5.800;2023-02-19T02:59:27;22.60;;;8.70;;
55090;SDS011;40985;53.180;5.800;2023-02-19T03:01:57;17.85;;;8.20;;
55090;SDS011;40985;53.180;5.800;2023-02-19T03:08:04;16.15;;;12.82;;
55090;SDS011;40985;53.180;5.800;2023-02-19T03:10:38;18.70;;;13.98;;
55090;SDS011;40985;53.180;5.800;2023-02-19T03:16:16;17.65;;;14.35;;
55090;SDS011;40985;53.180;5.800;2023-02-19T03:19:03;17.13;;;13.95;;
55090;SDS011;40985;53.180;5.800;2023-02-19T03:22:00;18.58;;;14.93;;
55090;SDS011;40985;53.180;5.800;2023-02-19T03:24:40;23.85;;;16.35;;
55090;SDS011;40985;53.180;5.800;2023-02-19T03:27:32;21.77;;;17.15;;
55090;SDS011;40985;53.180;5.800;2023-02-19T03:30:01;24.38;;;18.70;;
55090;SDS011;40985;53.180;5.800;2023-02-19T03:32:36;25.07;;;17.60;;
55090;SDS011;40985;53.180;5.800;2023-02-19T03:35:12;30.52;;;18.83;;
55090;SDS011;40985;53.180;5.800;2023-02-19T03:37:46;26.00;;;18.55;;
55090;SDS011;40985;53.180;5.800;2023-02-19T03:40:18;27.42;;;18.58;;
55090;SDS011;40985;53.180;5.800;2023-02-19T03:53:37;6.50;;;4.65;;
55090;SDS011;40985;53.180;5.800;2023-02-19T03:58:47;9.30;;;5.68;;
55090;SDS011;40985;53.180;5.800;2023-02-19T04:01:50;8.38;;;5.95;;
55090;SDS011;40985;53.180;5.800;2023-02-19T04:04:34;8.98;;;5.30;;
55090;SDS011;40985;53.180;5.800;2023-02-19T04:07:07;7.88;;;5.47;;
55090;SDS011;40985;53.180;5.800;2023-02-19T04:09:35;10.63;;;6.35;;
55090;SDS011;40985;53.180;5.800;2023-02-19T04:12:03;13.18;;;6.10;;
55090;SDS011;40985;53.180;5.800;2023-02-19T04:17:19;8.55;;;4.68;;
55090;SDS011;40985;53.180;5.800;2023-02-19T04:19:48;8.85;;;5.15;;
55090;SDS011;40985;53.180;5.800;2023-02-19T04:22:16;6.30;;;4.85;;
55090;SDS011;40985;53.180;5.800;2023-02-19T04:24:44;6.22;;;5.57;;
55090;SDS011;40985;53.180;5.800;2023-02-19T04:27:14;9.15;;;6.00;;
55090;SDS011;40985;53.180;5.800;2023-02-19T04:29:40;9.30;;;5.57;;
55090;SDS011;40985;53.180;5.800;2023-02-19T04:32:05;12.30;;;5.65;;
55090;SDS011;40985;53.180;5.800;2023-02-19T04:34:33;11.82;;;5.50;;
55090;SDS011;40985;53.180;5.800;2023-02-19T04:37:00;12.15;;;5.60;;
55090;SDS011;40985;53.180;5.800;2023-02-19T04:39:27;9.52;;;4.63;;
55090;SDS011;40985;53.180;5.800;2023-02-19T04:41:52;5.85;;;3.17;;
55090;SDS011;40985;53.180;5.800;2023-02-19T04:44:18;6.45;;;3.13;;
55090;SDS011;40985;53.180;5.800;2023-02-19T04:46:44;7.88;;;3.17;;
55090;SDS011;40985;53.180;5.800;2023-02-19T04:49:10;7.90;;;3.35;;
55090;SDS011;40985;53.180;5.800;2023-02-19T04:51:36;4.32;;;2.80;;
55090;SDS011;40985;53.180;5.800;2023-02-19T04:54:02;5.70;;;3.70;;
55090;SDS011;40985;53.180;5.800;2023-02-19T04:56:27;6.05;;;3.53;;
55090;SDS011;40985;53.180;5.800;2023-02-19T04:58:53;7.97;;;4.10;;
55090;SDS011;40985;53.180;5.800;2023-02-19T05:01:19;6.93;;;4.70;;
55090;SDS011;40985;53.180;5.800;2023-02-19T05:03:45;9.45;;;4.35;;
55090;SDS011;40985;53.180;5.800;2023-02-19T05:06:11;9.13;;;4.60;;
55090;SDS011;40985;53.180;5.800;2023-02-19T05:08:38;9.23;;;5.15;;
55090;SDS011;40985;53.180;5.800;2023-02-19T05:11:05;7.88;;;5.13;;
55090;SDS011;40985;53.180;5.800;2023-02-19T05:13:32;11.43;;;5.63;;
55090;SDS011;40985;53.180;5.800;2023-02-19T05:15:59;14.60;;;6.28;;
55090;SDS011;40985;53.180;5.800;2023-02-19T05:18:26;9.25;;;5.65;;
55090;SDS011;40985;53.180;5.800;2023-02-19T05:20:53;10.50;;;5.60;;
55090;SDS011;40985;53.180;5.800;2023-02-19T05:23:19;11.23;;;6.20;;
55090;SDS011;40985;53.180;5.800;2023-02-19T05:25:45;11.23;;;6.55;;
55090;SDS011;40985;53.180;5.800;2023-02-19T05:28:11;12.93;;;7.10;;
55090;SDS011;40985;53.180;5.800;2023-02-19T05:30:50;12.53;;;7.33;;
55090;SDS011;40985;53.180;5.800;2023-02-19T05:33:17;8.75;;;3.83;;
55090;SDS011;40985;53.180;5.800;2023-02-19T05:35:51;5.10;;;2.90;;
55090;SDS011;40985;53.180;5.800;2023-02-19T05:38:19;6.78;;;2.53;;
55090;SDS011;40985;53.180;5.800;2023-02-19T05:40:45;5.22;;;2.15;;
55090;SDS011;40985;53.180;5.800;2023-02-19T05:43:12;3.38;;;1.10;;
55090;SDS011;40985;53.180;5.800;2023-02-19T05:45:38;3.20;;;1.30;;
55090;SDS011;40985;53.180;5.800;2023-02-19T05:48:05;3.47;;;0.93;;
55090;SDS011;40985;53.180;5.800;2023-02-19T05:50:32;2.45;;;0.57;;
55090;SDS011;40985;53.180;5.800;2023-02-19T05:52:59;2.10;;;0.90;;
55090;SDS011;40985;53.180;5.800;2023-02-19T05:55:26;6.70;;;1.10;;
55090;SDS011;40985;53.180;5.800;2023-02-19T05:57:52;3.53;;;0.80;;
55090;SDS011;40985;53.180;5.800;2023-02-19T06:00:18;1.67;;;0.63;;
55090;SDS011;40985;53.180;5.800;2023-02-19T06:02:44;2.15;;;0.40;;
55090;SDS011;40985;53.180;5.800;2023-02-19T06:05:11;1.55;;;0.32;;
55090;SDS011;40985;53.180;5.800;2023-02-19T06:07:37;2.63;;;0.40;;
55090;SDS011;40985;53.180;5.800;2023-02-19T06:10:06;0.40;;;0.30;;
55090;SDS011;40985;53.180;5.800;2023-02-19T06:12:33;2.28;;;0.30;;
55090;SDS011;40985;53.180;5.800;2023-02-19T06:14:58;3.92;;;0.40;;
55090;SDS011;40985;53.180;5.800;2023-02-19T06:17:24;3.00;;;0.60;;
55090;SDS011;40985;53.180;5.800;2023-02-19T06:19:50;2.15;;;0.50;;
55090;SDS011;40985;53.180;5.800;2023-02-19T06:22:15;2.03;;;0.65;;
55090;SDS011;40985;53.180;5.800;2023-02-19T06:24:41;2.45;;;0.65;;
55090;SDS011;40985;53.180;5.800;2023-02-19T06:27:07;2.55;;;0.47;;
55090;SDS011;40985;53.180;5.800;2023-02-19T06:29:33;2.00;;;0.30;;
55090;SDS011;40985;53.180;5.800;2023-02-19T06:32:02;3.05;;;0.40;;
55090;SDS011;40985;53.180;5.800;2023-02-19T06:34:28;2.25;;;0.50;;
55090;SDS011;40985;53.180;5.800;2023-02-19T06:36:54;4.00;;;0.60;;
55090;SDS011;40985;53.180;5.800;2023-02-19T06:39:20;2.10;;;0.40;;
55090;SDS011;40985;53.180;5.800;2023-02-19T06:41:46;3.50;;;0.40;;
55090;SDS011;40985;53.180;5.800;2023-02-19T06:44:11;3.85;;;0.43;;
55090;SDS011;40985;53.180;5.800;2023-02-19T06:46:37;1.00;;;0.55;;
55090;SDS011;40985;53.180;5.800;2023-02-19T06:49:03;3.88;;;0.40;;
55090;SDS011;40985;53.180;5.800;2023-02-19T06:51:29;1.75;;;0.32;;
55090;SDS011;40985;53.180;5.800;2023-02-19T06:53:56;4.38;;;0.40;;
55090;SDS011;40985;53.180;5.800;2023-02-19T06:56:26;3.75;;;0.40;;
55090;SDS011;40985;53.180;5.800;2023-02-19T06:58:55;2.78;;;0.52;;
55090;SDS011;40985;53.180;5.800;2023-02-19T07:01:24;3.38;;;0.40;;
55090;SDS011;40985;53.180;5.800;2023-02-19T07:03:50;2.33;;;0.60;;
55090;SDS011;40985;53.180;5.800;2023-02-19T07:06:17;1.90;;;0.50;;
55090;SDS011;40985;53.180;5.800;2023-02-19T07:08:43;2.13;;;0.80;;
55090;SDS011;40985;53.180;5.800;2023-02-19T07:11:09;2.50;;;0.60;;
55090;SDS011;40985;53.180;5.800;2023-02-19T07:13:35;2.40;;;0.50;;
55090;SDS011;40985;53.180;5.800;2023-02-19T07:16:02;3.90;;;0.55;;
55090;SDS011;40985;53.180;5.800;2023-02-19T07:18:32;2.38;;;0.30;;
55090;SDS011;40985;53.180;5.800;2023-02-19T07:21:08;1.85;;;0.40;;
55090;SDS011;40985;53.180;5.800;2023-02-19T07:23:36;1.95;;;0.30;;
55090;SDS011;40985;53.180;5.800;2023-02-19T07:26:02;4.05;;;0.30;;
55090;SDS011;40985;53.180;5.800;2023-02-19T07:28:28;1.60;;;0.30;;
55090;SDS011;40985;53.180;5.800;2023-02-19T07:30:58;1.02;;;0.30;;
55090;SDS011;40985;53.180;5.800;2023-02-19T07:33:25;2.90;;;0.30;;
55090;SDS011;40985;53.180;5.800;2023-02-19T07:35:51;1.52;;;0.30;;
55090;SDS011;40985;53.180;5.800;2023-02-19T07:38:17;1.25;;;0.30;;
55090;SDS011;40985;53.180;5.800;2023-02-19T07:40:53;1.00;;;0.20;;
55090;SDS011;40985;53.180;5.800;2023-02-19T07:43:24;2.88;;;0.30;;
55090;SDS011;40985;53.180;5.800;2023-02-19T07:45:51;0.82;;;0.20;;
55090;SDS011;40985;53.180;5.800;2023-02-19T07:48:17;2.45;;;0.20;;
55090;SDS011;40985;53.180;5.800;2023-02-19T07:50:58;1.25;;;0.20;;
55090;SDS011;40985;53.180;5.800;2023-02-19T07:53:24;1.30;;;0.10;;
55090;SDS011;40985;53.180;5.800;2023-02-19T07:55:51;3.38;;;0.10;;
55090;SDS011;40985;53.180;5.800;2023-02-19T07:58:17;1.08;;;0.13;;
55090;SDS011;40985;53.180;5.800;2023-02-19T08:00:43;0.65;;;0.20;;
55090;SDS011;40985;53.180;5.800;2023-02-19T08:03:09;0.50;;;0.17;;
55090;SDS011;40985;53.180;5.800;2023-02-19T08:05:39;0.68;;;0.10;;
55090;SDS011;40985;53.180;5.800;2023-02-19T08:08:09;1.17;;;0.13;;
55090;SDS011;40985;53.180;5.800;2023-02-19T08:10:37;0.65;;;0.10;;
55090;SDS011;40985;53.180;5.800;2023-02-19T08:13:21;1.30;;;0.10;;
55090;SDS011;40985;53.180;5.800;2023-02-19T08:18:15;1.08;;;0.10;;
55090;SDS011;40985;53.180;5.800;2023-02-19T08:20:42;0.98;;;0.10;;
55090;SDS011;40985;53.180;5.800;2023-02-19T08:23:08;1.50;;;0.10;;
55090;SDS011;40985;53.180;5.800;2023-02-19T08:25:35;2.70;;;0.10;;
55090;SDS011;40985;53.180;5.800;2023-02-19T08:28:00;1.45;;;0.10;;
55090;SDS011;40985;53.180;5.800;2023-02-19T08:30:27;0.85;;;0.10;;
55090;SDS011;40985;53.180;5.800;2023-02-19T08:32:53;0.65;;;0.10;;
55090;SDS011;40985;53.180;5.800;2023-02-19T08:35:19;0.88;;;0.00;;
55090;SDS011;40985;53.180;5.800;2023-02-19T08:37:45;0.52;;;0.13;;
55090;SDS011;40985;53.180;5.800;2023-02-19T08:40:11;1.20;;;0.30;;
55090;SDS011;40985;53.180;5.800;2023-02-19T08:42:37;0.17;;;0.00;;
55090;SDS011;40985;53.180;5.800;2023-02-19T08:45:03;0.88;;;0.10;;
55090;SDS011;40985;53.180;5.800;2023-02-19T08:47:29;0.50;;;0.20;;
55090;SDS011;40985;53.180;5.800;2023-02-19T08:49:55;0.70;;;0.10;;
55090;SDS011;40985;53.180;5.800;2023-02-19T08:52:21;0.55;;;0.10;;
55090;SDS011;40985;53.180;5.800;2023-02-19T08:54:46;1.42;;;0.30;;
55090;SDS011;40985;53.180;5.800;2023-02-19T08:57:12;0.40;;;0.10;;
55090;SDS011;40985;53.180;5.800;2023-02-19T08:59:38;0.20;;;0.10;;
55090;SDS011;40985;53.180;5.800;2023-02-19T09:02:03;0.10;;;0.05;;
55090;SDS011;40985;53.180;5.800;2023-02-19T09:04:29;0.95;;;0.10;;
55090;SDS011;40985;53.180;5.800;2023-02-19T09:06:55;0.32;;;0.10;;
55090;SDS011;40985;53.180;5.800;2023-02-19T09:09:20;0.60;;;0.20;;
55090;SDS011;40985;53.180;5.800;2023-02-19T09:11:46;0.90;;;0.20;;
55090;SDS011;40985;53.180;5.800;2023-02-19T09:14:11;1.00;;;0.10;;
55090;SDS011;40985;53.180;5.800;2023-02-19T09:16:37;0.63;;;0.10;;
55090;SDS011;40985;53.180;5.800;2023-02-19T09:19:03;0.32;;;0.20;;
55090;SDS011;40985;53.180;5.800;2023-02-19T09:21:29;0.30;;;0.10;;
55090;SDS011;40985;53.180;5.800;2023-02-19T09:23:55;1.30;;;0.20;;
55090;SDS011;40985;53.180;5.800;2023-02-19T09:26:20;0.50;;;0.10;;
55090;SDS011;40985;53.180;5.800;2023-02-19T09:28:46;1.20;;;0.10;;
55090;SDS011;40985;53.180;5.800;2023-02-19T09:31:13;1.27;;;0.40;;
55090;SDS011;40985;53.180;5.800;2023-02-19T09:33:46;3.90;;;1.35;;
55090;SDS011;40985;53.180;5.800;2023-02-19T09:36:13;0.60;;;0.20;;
55090;SDS011;40985;53.180;5.800;2023-02-19T09:38:40;0.40;;;0.10;;
55090;SDS011;40985;53.180;5.800;2023-02-19T09:41:28;1.05;;;0.10;;
55090;SDS011;40985;53.180;5.800;2023-02-19T09:43:52;0.57;;;0.30;;
55090;SDS011;40985;53.180;5.800;2023-02-19T09:46:22;4.03;;;1.45;;
55090;SDS011;40985;53.180;5.800;2023-02-19T09:49:12;2.35;;;1.33;;
55090;SDS011;40985;53.180;5.800;2023-02-19T09:51:42;6.10;;;3.22;;
55090;SDS011;40985;53.180;5.800;2023-02-19T09:54:14;12.00;;;6.55;;
55090;SDS011;40985;53.180;5.800;2023-02-19T09:56:46;6.90;;;4.13;;
55090;SDS011;40985;53.180;5.800;2023-02-19T09:59:18;5.30;;;0.90;;
55090;SDS011;40985;53.180;5.800;2023-02-19T10:01:51;6.95;;;2.10;;
55090;SDS011;40985;53.180;5.800;2023-02-19T10:04:26;4.65;;;1.17;;
55090;SDS011;40985;53.180;5.800;2023-02-19T10:06:52;4.07;;;0.80;;
55090;SDS011;40985;53.180;5.800;2023-02-19T10:09:23;5.15;;;0.73;;
55090;SDS011;40985;53.180;5.800;2023-02-19T10:11:52;11.88;;;6.30;;
55090;SDS011;40985;53.180;5.800;2023-02-19T10:14:31;5.47;;;3.95;;
55090;SDS011;40985;53.180;5.800;2023-02-19T10:17:21;2.17;;;0.20;;
55090;SDS011;40985;53.180;5.800;2023-02-19T10:19:53;2.25;;;0.22;;
55090;SDS011;40985;53.180;5.800;2023-02-19T10:22:20;3.28;;;0.30;;
55090;SDS011;40985;53.180;5.800;2023-02-19T10:24:48;3.95;;;0.20;;
55090;SDS011;40985;53.180;5.800;2023-02-19T10:27:16;1.27;;;0.20;;
55090;SDS011;40985;53.180;5.800;2023-02-19T10:29:43;1.63;;;0.10;;
55090;SDS011;40985;53.180;5.800;2023-02-19T10:32:11;4.10;;;0.40;;
55090;SDS011;40985;53.180;5.800;2023-02-19T10:34:47;2.40;;;0.20;;
55090;SDS011;40985;53.180;5.800;2023-02-19T10:37:33;2.78;;;0.40;;
55090;SDS011;40985;53.180;5.800;2023-02-19T10:39:59;5.28;;;0.50;;
55090;SDS011;40985;53.180;5.800;2023-02-19T10:42:25;4.70;;;0.25;;
55090;SDS011;40985;53.180;5.800;2023-02-19T10:44:52;5.07;;;0.20;;
55090;SDS011;40985;53.180;5.800;2023-02-19T10:47:22;0.60;;;0.10;;
55090;SDS011;40985;53.180;5.800;2023-02-19T10:49:50;2.05;;;0.10;;
55090;SDS011;40985;53.180;5.800;2023-02-19T10:52:20;2.15;;;0.20;;
55090;SDS011;40985;53.180;5.800;2023-02-19T10:54:51;3.05;;;0.20;;
55090;SDS011;40985;53.180;5.800;2023-02-19T10:57:24;3.75;;;0.15;;
55090;SDS011;40985;53.180;5.800;2023-02-19T11:00:00;2.20;;;0.20;;
55090;SDS011;40985;53.180;5.800;2023-02-19T11:02:37;1.80;;;0.10;;
55090;SDS011;40985;53.180;5.800;2023-02-19T11:05:04;1.77;;;0.10;;
55090;SDS011;40985;53.180;5.800;2023-02-19T11:07:37;2.90;;;0.20;;
55090;SDS011;40985;53.180;5.800;2023-02-19T11:10:17;2.17;;;0.17;;
55090;SDS011;40985;53.180;5.800;2023-02-19T11:13:05;1.05;;;0.10;;
55090;SDS011;40985;53.180;5.800;2023-02-19T11:15:36;3.10;;;0.15;;
55090;SDS011;40985;53.180;5.800;2023-02-19T11:23:19;2.60;;;0.22;;
55090;SDS011;40985;53.180;5.800;2023-02-19T11:25:53;3.17;;;0.20;;
55090;SDS011;40985;53.180;5.800;2023-02-19T11:28:23;3.25;;;0.10;;
55090;SDS011;40985;53.180;5.800;2023-02-19T11:31:11;3.33;;;0.10;;
55090;SDS011;40985;53.180;5.800;2023-02-19T11:33:44;4.55;;;0.30;;
55090;SDS011;40985;53.180;5.800;2023-02-19T11:36:19;3.92;;;0.10;;
55090;SDS011;40985;53.180;5.800;2023-02-19T11:38:48;2.33;;;0.10;;
55090;SDS011;40985;53.180;5.800;2023-02-19T11:41:17;2.92;;;0.10;;
55090;SDS011;40985;53.180;5.800;2023-02-19T11:44:16;1.48;;;0.10;;
55090;SDS011;40985;53.180;5.800;2023-02-19T11:52:36;3.05;;;0.45;;
55090;SDS011;40985;53.180;5.800;2023-02-19T12:01:08;2.42;;;0.10;;
55090;SDS011;40985;53.180;5.800;2023-02-19T12:06:16;2.08;;;0.10;;
55090;SDS011;40985;53.180;5.800;2023-02-19T12:12:11;1.10;;;0.00;;
55090;SDS011;40985;53.180;5.800;2023-02-19T12:36:26;3.88;;;0.30;;
55090;SDS011;40985;53.180;5.800;2023-02-19T12:39:03;3.95;;;0.20;;
55090;SDS011;40985;53.180;5.800;2023-02-19T12:41:51;4.75;;;0.10;;
55090;SDS011;40985;53.180;5.800;2023-02-19T12:44:21;1.70;;;0.25;;
55090;SDS011;40985;53.180;5.800;2023-02-19T12:47:03;3.40;;;0.10;;
55090;SDS011;40985;53.180;5.800;2023-02-19T12:49:40;3.72;;;0.30;;
55090;SDS011;40985;53.180;5.800;2023-02-19T12:52:21;1.88;;;0.10;;
55090;SDS011;40985;53.180;5.800;2023-02-19T12:54:51;3.97;;;0.68;;
55090;SDS011;40985;53.180;5.800;2023-02-19T12:57:22;2.05;;;0.10;;
55090;SDS011;40985;53.180;5.800;2023-02-19T13:07:58;5.38;;;0.20;;
55090;SDS011;40985;53.180;5.800;2023-02-19T13:13:12;4.55;;;0.40;;
55090;SDS011;40985;53.180;5.800;2023-02-19T13:15:45;3.97;;;0.32;;
55090;SDS011;40985;53.180;5.800;2023-02-19T13:18:25;3.22;;;0.20;;
55090;SDS011;40985;53.180;5.800;2023-02-19T13:21:03;6.30;;;0.35;;
55090;SDS011;40985;53.180;5.800;2023-02-19T13:23:37;7.63;;;0.47;;
55090;SDS011;40985;53.180;5.800;2023-02-19T13:38:30;4.90;;;0.20;;
55090;SDS011;40985;53.180;5.800;2023-02-19T13:41:16;2.17;;;0.20;;
55090;SDS011;40985;53.180;5.800;2023-02-19T13:43:44;6.63;;;0.43;;
55090;SDS011;40985;53.180;5.800;2023-02-19T13:46:12;3.28;;;0.10;;
55090;SDS011;40985;53.180;5.800;2023-02-19T13:48:41;4.75;;;0.20;;
55090;SDS011;40985;53.180;5.800;2023-02-19T14:04:20;2.67;;;0.20;;
55090;SDS011;40985;53.180;5.800;2023-02-19T14:30:33;1.67;;;0.10;;
55090;SDS011;40985;53.180;5.800;2023-02-19T14:33:08;3.00;;;0.10;;
55090;SDS011;40985;53.180;5.800;2023-02-19T14:35:39;1.65;;;0.10;;
55090;SDS011;40985;53.180;5.800;2023-02-19T14:40:45;2.90;;;0.20;;
55090;SDS011;40985;53.180;5.800;2023-02-19T14:43:13;2.97;;;0.20;;
55090;SDS011;40985;53.180;5.800;2023-02-19T14:45:42;2.60;;;0.50;;
55090;SDS011;40985;53.180;5.800;2023-02-19T14:48:33;6.30;;;1.17;;
55090;SDS011;40985;53.180;5.800;2023-02-19T14:51:05;4.50;;;0.20;;
55090;SDS011;40985;53.180;5.800;2023-02-19T14:53:40;7.90;;;0.50;;
55090;SDS011;40985;53.180;5.800;2023-02-19T14:59:04;4.22;;;0.20;;
55090;SDS011;40985;53.180;5.800;2023-02-19T15:01:44;3.47;;;0.30;;
55090;SDS011;40985;53.180;5.800;2023-02-19T15:04:32;4.38;;;0.40;;
55090;SDS011;40985;53.180;5.800;2023-02-19T15:07:01;5.03;;;0.40;;
55090;SDS011;40985;53.180;5.800;2023-02-19T15:09:32;3.85;;;0.17;;
55090;SDS011;40985;53.180;5.800;2023-02-19T15:12:03;4.65;;;0.20;;
55090;SDS011;40985;53.180;5.800;2023-02-19T15:14:29;2.90;;;0.30;;
55090;SDS011;40985;53.180;5.800;2023-02-19T15:16:58;6.80;;;0.20;;
55090;SDS011;40985;53.180;5.800;2023-02-19T15:19:26;1.73;;;0.10;;
55090;SDS011;40985;53.180;5.800;2023-02-19T15:21:56;7.88;;;1.17;;
55090;SDS011;40985;53.180;5.800;2023-02-19T15:24:22;4.82;;;0.35;;
55090;SDS011;40985;53.180;5.800;2023-02-19T15:26:51;2.17;;;0.17;;
55090;SDS011;40985;53.180;5.800;2023-02-19T15:29:19;5.57;;;0.20;;
55090;SDS011;40985;53.180;5.800;2023-02-19T15:31:51;1.63;;;0.10;;
55090;SDS011;40985;53.180;5.800;2023-02-19T15:34:21;4.18;;;0.30;;
55090;SDS011;40985;53.180;5.800;2023-02-19T15:36:51;1.40;;;0.10;;
55090;SDS011;40985;53.180;5.800;2023-02-19T15:39:25;4.63;;;0.55;;
55090;SDS011;40985;53.180;5.800;2023-02-19T15:41:57;5.40;;;0.30;;
55090;SDS011;40985;53.180;5.800;2023-02-19T15:46:52;5.00;;;0.20;;
55090;SDS011;40985;53.180;5.800;2023-02-19T15:49:20;5.07;;;0.70;;
55090;SDS011;40985;53.180;5.800;2023-02-19T15:52:02;9.07;;;1.65;;
55090;SDS011;40985;53.180;5.800;2023-02-19T15:54:52;7.32;;;0.80;;
55090;SDS011;40985;53.180;5.800;2023-02-19T15:57:27;6.28;;;0.52;;
55090;SDS011;40985;53.180;5.800;2023-02-19T16:00:09;8.68;;;1.25;;
55090;SDS011;40985;53.180;5.800;2023-02-19T16:02:50;6.22;;;0.98;;
55090;SDS011;40985;53.180;5.800;2023-02-19T16:05:26;6.28;;;0.60;;
55090;SDS011;40985;53.180;5.800;2023-02-19T16:10:37;4.75;;;0.93;;
55090;SDS011;40985;53.180;5.800;2023-02-19T16:13:03;7.15;;;0.40;;
55090;SDS011;40985;53.180;5.800;2023-02-19T16:15:32;6.82;;;0.20;;
55090;SDS011;40985;53.180;5.800;2023-02-19T16:17:58;5.97;;;0.55;;
55090;SDS011;40985;53.180;5.800;2023-02-19T16:20:28;2.53;;;0.20;;
55090;SDS011;40985;53.180;5.800;2023-02-19T16:23:03;10.98;;;5.80;;
55090;SDS011;40985;53.180;5.800;2023-02-19T16:28:10;8.55;;;2.20;;
55090;SDS011;40985;53.180;5.800;2023-02-19T16:30:37;12.38;;;5.50;;
55090;SDS011;40985;53.180;5.800;2023-02-19T16:36:16;6.65;;;3.47;;
55090;SDS011;40985;53.180;5.800;2023-02-19T16:41:34;4.82;;;0.90;;
55090;SDS011;40985;53.180;5.800;2023-02-19T16:47:00;4.70;;;0.73;;
55090;SDS011;40985;53.180;5.800;2023-02-19T16:49:29;6.15;;;1.60;;
55090;SDS011;40985;53.180;5.800;2023-02-19T16:51:55;4.47;;;1.08;;
55090;SDS011;40985;53.180;5.800;2023-02-19T16:54:23;44.83;;;26.15;;
55090;SDS011;40985;53.180;5.800;2023-02-19T16:56:49;79.80;;;56.60;;
55090;SDS011;40985;53.180;5.800;2023-02-19T16:59:14;12.85;;;4.05;;
55090;SDS011;40985;53.180;5.800;2023-02-19T17:01:40;27.05;;;16.50;;
55090;SDS011;40985;53.180;5.800;2023-02-19T17:04:10;21.42;;;13.95;;
55090;SDS011;40985;53.180;5.800;2023-02-19T17:06:37;8.80;;;3.20;;
55090;SDS011;40985;53.180;5.800;2023-02-19T17:09:06;12.55;;;2.97;;
55090;SDS011;40985;53.180;5.800;2023-02-19T17:11:33;13.82;;;7.40;;
55090;SDS011;40985;53.180;5.800;2023-02-19T17:13:59;12.27;;;7.43;;
55090;SDS011;40985;53.180;5.800;2023-02-19T17:16:26;20.15;;;9.75;;
55090;SDS011;40985;53.180;5.800;2023-02-19T17:18:53;16.00;;;8.10;;
55090;SDS011;40985;53.180;5.800;2023-02-19T17:21:20;11.75;;;3.88;;
55090;SDS011;40985;53.180;5.800;2023-02-19T17:23:47;10.85;;;3.30;;
55090;SDS011;40985;53.180;5.800;2023-02-19T17:26:17;6.13;;;2.20;;
55090;SDS011;40985;53.180;5.800;2023-02-19T17:28:45;7.47;;;1.83;;
55090;SDS011;40985;53.180;5.800;2023-02-19T17:31:11;8.30;;;1.17;;
55090;SDS011;40985;53.180;5.800;2023-02-19T17:33:40;19.50;;;14.48;;
55090;SDS011;40985;53.180;5.800;2023-02-19T17:36:07;7.55;;;2.03;;
55090;SDS011;40985;53.180;5.800;2023-02-19T17:38:40;9.88;;;1.83;;
55090;SDS011;40985;53.180;5.800;2023-02-19T17:41:06;4.28;;;0.70;;
55090;SDS011;40985;53.180;5.800;2023-02-19T17:43:31;4.65;;;0.50;;
55090;SDS011;40985;53.180;5.800;2023-02-19T17:45:57;2.80;;;0.20;;
55090;SDS011;40985;53.180;5.800;2023-02-19T17:48:23;4.00;;;0.80;;
55090;SDS011;40985;53.180;5.800;2023-02-19T17:50:48;2.83;;;0.32;;
55090;SDS011;40985;53.180;5.800;2023-02-19T17:53:16;3.22;;;0.40;;